Aérodrome :
LOGIN :

S'inscrire | Disclaimer

   EN    FR    IT 

 










Légende :    VFR   VFR Marginal   IFR   IFR Intensif   IFR Très Intensif
Visi : 
Plafond : 
>= 8 km
>= 3000ft
5 à 8 km
1000 à 3000 ft
1500m à 5 km
500 à 1000 ft
800 à 1500m
200 à 500 ft
< 800m
< 200 ft
Symboles :   Orages  Brouillard  Fortes neiges  Fortes précipitations  Vent > 20 kt
SIGMETs :   Divers  Orages  Givrage  Turbulence  Onde Orograph.  Cendres Volcan.







- Altitude de l'aérodrome : 1516 ft
- Code IATA : AGB


EDMA - Augsburg

DERNIER METAR :
  • 170150Z AUTO 10002KT 0550 R07/1300D // FEW004/// 07/07 Q1026

METARs EXPIRÉS :
  • 170120Z AUTO 14002KT 9999 // NCD 06/06 Q1026
  • 170050Z AUTO 13004KT 9000 // FEW005/// 08/07 Q1026
  • 170020Z AUTO 12003KT 0700 R07/P2000N // FEW005/// 06/06 Q1026
  • 162350Z AUTO 17003KT 1400 R07/P2000N // FEW003/// 07/07 Q1026
  • 162320Z AUTO 00000KT 0500 R07/0550U // NCD 08/07 Q1026

TAF TAF EDMA
Valide du 16 à 18h jusqu'au 17 à 03h UTC


161700Z 1618/1703 VRB02KT CAVOK
BECMG 1620/1622 2500 BCFG
PROB40
TEMPO 1622/1703 0300 FG VV001
Pas de NOTAMs connus pour ce terrain.



MET'MAP, la Météo Aéronautique d'un coup d'oeil ! - Copyright ORBIFLY Décembre 2007 - Disclaimer

ORBIFLY MET'MAP TEAM :

Programmation & Développement : Alexandra Zaïnal
Conception & Développement : Baudouin d'Aumeries
Co-Programmation & Développement : Marc-Olivier Méhu
Soutien technique & logistique : Manuel Goepfert

Contact : metmap@orbifly.com




SOURCES & CREDITS :

   NOAA